createdAt,value
2018-03-09T00:00:21.000Z,99111
2018-03-09T00:02:21.000Z,99112
2018-03-09T00:03:21.000Z,99108
2018-03-09T00:05:21.000Z,99116
2018-03-09T00:06:51.000Z,99116
2018-03-09T00:08:21.000Z,99121
2018-03-09T00:10:21.000Z,99122
2018-03-09T00:11:51.000Z,99124
2018-03-09T00:13:21.000Z,99127
2018-03-09T00:15:21.000Z,99127
2018-03-09T00:16:21.000Z,99126
2018-03-09T00:17:21.000Z,99130
2018-03-09T00:18:51.000Z,99132
2018-03-09T00:20:21.000Z,99131
2018-03-09T00:22:21.000Z,99136
2018-03-09T00:23:21.000Z,99130
2018-03-09T00:25:21.000Z,99137
2018-03-09T00:27:21.000Z,99137
2018-03-09T00:28:21.000Z,99137
2018-03-09T00:30:21.000Z,99139
2018-03-09T00:34:21.000Z,99138
2018-03-09T00:36:07.000Z,99143
2018-03-09T00:37:07.000Z,99138
2018-03-09T00:38:07.000Z,99139
2018-03-09T00:40:07.000Z,99138
2018-03-09T00:41:37.000Z,99144
2018-03-09T00:43:07.000Z,99146
2018-03-09T00:45:07.000Z,99143
2018-03-09T00:47:07.000Z,99145
2018-03-09T00:49:07.000Z,99143
2018-03-09T00:50:07.000Z,99143
2018-03-09T00:52:07.000Z,99153
2018-03-09T00:54:07.000Z,99153
2018-03-09T00:56:07.000Z,99154
2018-03-09T00:57:07.000Z,99154
2018-03-09T00:58:07.000Z,99152
2018-03-09T01:00:07.000Z,99158
2018-03-09T01:01:52.000Z,99156
2018-03-09T01:03:07.000Z,99160
2018-03-09T01:05:07.000Z,99157
2018-03-09T01:07:07.000Z,99162
2018-03-09T01:09:07.000Z,99166
2018-03-09T01:10:07.000Z,99160
2018-03-09T01:11:07.000Z,99158
2018-03-09T01:13:07.000Z,99160
2018-03-09T01:14:07.000Z,99166
2018-03-09T01:15:52.000Z,99165
2018-03-09T01:17:07.000Z,99160
2018-03-09T01:19:07.000Z,99166
2018-03-09T01:21:07.000Z,99164
2018-03-09T01:22:07.000Z,99168
2018-03-09T01:24:07.000Z,99166
2018-03-09T01:26:07.000Z,99169
2018-03-09T01:28:07.000Z,99171
2018-03-09T01:30:07.000Z,99170
2018-03-09T01:32:07.000Z,99169
2018-03-09T01:33:07.000Z,99167
2018-03-09T01:34:52.000Z,99169
2018-03-09T01:36:07.000Z,99162
2018-03-09T01:37:07.000Z,99166
2018-03-09T01:39:07.000Z,99163
2018-03-09T01:40:07.000Z,99167
2018-03-09T01:42:07.000Z,99170
2018-03-09T01:43:52.000Z,99167
2018-03-09T01:45:07.000Z,99169
2018-03-09T01:46:07.000Z,99172
2018-03-09T01:47:07.000Z,99165
2018-03-09T01:49:07.000Z,99172
2018-03-09T01:50:08.000Z,99171
2018-03-09T01:52:08.000Z,99170
2018-03-09T01:53:52.000Z,99174
2018-03-09T01:55:08.000Z,99172
2018-03-09T01:57:08.000Z,99183
2018-03-09T01:58:52.000Z,99174
2018-03-09T02:00:08.000Z,99177
2018-03-09T02:02:08.000Z,99177
2018-03-09T02:03:08.000Z,99180
2018-03-09T02:04:37.000Z,99181
2018-03-09T02:06:08.000Z,99182
2018-03-09T02:07:52.000Z,99183
2018-03-09T02:09:08.000Z,99183
2018-03-09T02:11:08.000Z,99184
2018-03-09T02:13:08.000Z,99180
2018-03-09T02:15:08.000Z,99187
2018-03-09T02:17:08.000Z,99190
2018-03-09T02:19:08.000Z,99188
2018-03-09T02:21:08.000Z,99196
2018-03-09T02:22:08.000Z,99192
2018-03-09T02:24:08.000Z,99192
2018-03-09T02:25:08.000Z,99191
2018-03-09T02:27:08.000Z,99197
2018-03-09T02:29:08.000Z,99196
2018-03-09T02:30:52.000Z,99197
2018-03-09T02:32:08.000Z,99199
2018-03-09T02:34:08.000Z,99200
2018-03-09T02:36:08.000Z,99200
2018-03-09T02:38:08.000Z,99209
2018-03-09T02:40:08.000Z,99209
2018-03-09T02:41:08.000Z,99210
2018-03-09T02:42:52.000Z,99205
2018-03-09T02:44:08.000Z,99209
2018-03-09T02:46:08.000Z,99206
2018-03-09T02:48:08.000Z,99214
2018-03-09T02:49:52.000Z,99212
2018-03-09T02:51:08.000Z,99211
2018-03-09T02:53:08.000Z,99210
2018-03-09T02:54:08.000Z,99206
2018-03-09T02:55:52.000Z,99210
2018-03-09T02:57:08.000Z,99211
2018-03-09T02:59:08.000Z,99222
2018-03-09T03:00:08.000Z,99220
2018-03-09T03:01:52.000Z,99221
2018-03-09T03:04:08.000Z,99225
2018-03-09T03:06:08.000Z,99223
2018-03-09T03:07:52.000Z,99225
2018-03-09T03:09:08.000Z,99226
2018-03-09T03:11:08.000Z,99226
2018-03-09T03:12:08.000Z,99227
2018-03-09T03:13:52.000Z,99219
2018-03-09T03:15:08.000Z,99225
2018-03-09T03:16:08.000Z,99223
2018-03-09T03:17:08.000Z,99228
2018-03-09T03:19:08.000Z,99223
2018-03-09T03:20:08.000Z,99227
2018-03-09T03:22:08.000Z,99229
2018-03-09T03:24:08.000Z,99224
2018-03-09T03:25:52.000Z,99227
2018-03-09T03:27:08.000Z,99224
2018-03-09T03:29:08.000Z,99227
2018-03-09T03:31:08.000Z,99230
2018-03-09T03:32:08.000Z,99232
2018-03-09T03:34:08.000Z,99241
2018-03-09T03:36:08.000Z,99244
2018-03-09T03:38:08.000Z,99240
2018-03-09T03:39:08.000Z,99236
2018-03-09T03:41:08.000Z,99246
2018-03-09T03:43:08.000Z,99250
2018-03-09T03:44:52.000Z,99252
2018-03-09T03:46:08.000Z,99250
2018-03-09T03:47:08.000Z,99255
2018-03-09T03:49:08.000Z,99254
2018-03-09T03:50:08.000Z,99252
2018-03-09T03:52:08.000Z,99258
2018-03-09T03:53:08.000Z,99255
2018-03-09T03:55:08.000Z,99249
2018-03-09T03:56:08.000Z,99250
2018-03-09T03:57:08.000Z,99254
2018-03-09T03:59:08.000Z,99250
2018-03-09T04:00:08.000Z,99249
2018-03-09T04:01:08.000Z,99253
2018-03-09T04:03:08.000Z,99257
2018-03-09T04:04:08.000Z,99253
2018-03-09T04:06:08.000Z,99263
2018-03-09T04:08:08.000Z,99273
2018-03-09T04:10:08.000Z,99277
2018-03-09T04:11:08.000Z,99273
2018-03-09T04:13:08.000Z,99277
2018-03-09T04:14:08.000Z,99274
2018-03-09T04:16:08.000Z,99275
2018-03-09T04:17:08.000Z,99269
2018-03-09T04:19:08.000Z,99270
2018-03-09T04:21:08.000Z,99276
2018-03-09T04:22:08.000Z,99266
2018-03-09T04:23:53.000Z,99272
2018-03-09T04:25:08.000Z,99274
2018-03-09T04:26:53.000Z,99280
2018-03-09T04:28:08.000Z,99274
2018-03-09T04:30:08.000Z,99271
2018-03-09T04:32:08.000Z,99274
2018-03-09T04:33:53.000Z,99276
2018-03-09T04:35:08.000Z,99278
2018-03-09T04:37:08.000Z,99280
2018-03-09T04:39:08.000Z,99274
2018-03-09T04:41:08.000Z,99273
2018-03-09T04:42:08.000Z,99274
2018-03-09T04:44:08.000Z,99276
2018-03-09T04:45:08.000Z,99277
2018-03-09T04:46:08.000Z,99278
2018-03-09T04:48:08.000Z,99287
2018-03-09T04:50:08.000Z,99292
2018-03-09T04:51:53.000Z,99288
2018-03-09T04:53:08.000Z,99282
2018-03-09T04:55:08.000Z,99286
2018-03-09T04:56:08.000Z,99285
2018-03-09T04:58:08.000Z,99284
2018-03-09T04:59:08.000Z,99283
2018-03-09T05:01:08.000Z,99287
2018-03-09T05:02:08.000Z,99291
2018-03-09T05:03:37.000Z,99294
2018-03-09T05:05:08.000Z,99296
2018-03-09T05:06:08.000Z,99296
2018-03-09T05:08:08.000Z,99299
2018-03-09T05:09:08.000Z,99300
2018-03-09T05:11:08.000Z,99305
2018-03-09T05:12:08.000Z,99308
2018-03-09T05:14:08.000Z,99305
2018-03-09T05:15:08.000Z,99306
2018-03-09T05:17:08.000Z,99313
2018-03-09T05:19:08.000Z,99307
2018-03-09T05:20:08.000Z,99308
2018-03-09T05:21:53.000Z,99310
2018-03-09T05:23:08.000Z,99314
2018-03-09T05:25:08.000Z,99317
2018-03-09T05:27:08.000Z,99314
2018-03-09T05:29:08.000Z,99314
2018-03-09T05:31:08.000Z,99318
2018-03-09T05:33:08.000Z,99325
2018-03-09T05:34:08.000Z,99318
2018-03-09T05:35:08.000Z,99328
2018-03-09T05:36:08.000Z,99319
2018-03-09T05:38:08.000Z,99320
2018-03-09T05:39:08.000Z,99322
2018-03-09T05:40:08.000Z,99320
2018-03-09T05:42:08.000Z,99322
2018-03-09T05:44:08.000Z,99327
2018-03-09T05:46:08.000Z,99329
2018-03-09T05:47:08.000Z,99339
2018-03-09T05:49:08.000Z,99337
2018-03-09T05:50:08.000Z,99331
2018-03-09T05:51:08.000Z,99333
2018-03-09T05:53:08.000Z,99331
2018-03-09T05:55:08.000Z,99337
2018-03-09T05:57:08.000Z,99341
2018-03-09T05:58:08.000Z,99339
2018-03-09T05:59:08.000Z,99339
2018-03-09T06:00:53.000Z,99341
2018-03-09T06:02:08.000Z,99341
2018-03-09T06:03:53.000Z,99345
2018-03-09T06:05:08.000Z,99347
2018-03-09T06:06:08.000Z,99350
2018-03-09T06:08:08.000Z,99344
2018-03-09T06:09:53.000Z,99346
2018-03-09T06:11:08.000Z,99348
2018-03-09T06:13:08.000Z,99348
2018-03-09T06:15:08.000Z,99355
2018-03-09T06:17:08.000Z,99343
2018-03-09T06:18:37.000Z,99349
2018-03-09T06:20:08.000Z,99353
2018-03-09T06:22:08.000Z,99356
2018-03-09T06:24:08.000Z,99358
2018-03-09T06:25:08.000Z,99362
2018-03-09T06:27:08.000Z,99358
2018-03-09T06:29:08.000Z,99358
2018-03-09T06:30:38.000Z,99361
2018-03-09T06:32:08.000Z,99361
2018-03-09T06:33:53.000Z,99355
2018-03-09T06:35:08.000Z,99359
2018-03-09T06:36:53.000Z,99364
2018-03-09T06:38:08.000Z,99366
2018-03-09T06:39:08.000Z,99368
2018-03-09T06:41:08.000Z,99375
2018-03-09T06:43:08.000Z,99367
2018-03-09T06:44:08.000Z,99368
2018-03-09T06:46:08.000Z,99368
2018-03-09T06:48:08.000Z,99365
2018-03-09T06:50:08.000Z,99369
2018-03-09T06:52:08.000Z,99371
2018-03-09T06:53:08.000Z,99372
2018-03-09T06:55:08.000Z,99377
2018-03-09T06:56:08.000Z,99379
2018-03-09T06:57:08.000Z,99373
2018-03-09T06:58:08.000Z,99375
2018-03-09T06:59:53.000Z,99378
2018-03-09T07:01:08.000Z,99377
2018-03-09T07:03:08.000Z,99385
2018-03-09T07:05:08.000Z,99388
2018-03-09T07:07:08.000Z,99390
2018-03-09T07:09:08.000Z,99393
2018-03-09T07:11:08.000Z,99420
2018-03-09T07:13:08.000Z,99414
2018-03-09T07:14:53.000Z,99415
2018-03-09T07:16:08.000Z,99425
2018-03-09T07:18:08.000Z,99415
2018-03-09T07:19:08.000Z,99409
2018-03-09T07:21:08.000Z,99413
2018-03-09T07:22:08.000Z,99412
2018-03-09T07:23:08.000Z,99412
2018-03-09T07:25:08.000Z,99406
2018-03-09T07:26:08.000Z,99408
2018-03-09T07:27:08.000Z,99413
2018-03-09T07:29:08.000Z,99415
2018-03-09T07:31:08.000Z,99427
2018-03-09T07:32:08.000Z,99423
2018-03-09T07:34:08.000Z,99420
2018-03-09T07:36:08.000Z,99426
2018-03-09T07:38:08.000Z,99429
2018-03-09T07:39:08.000Z,99424
2018-03-09T07:41:08.000Z,99435
2018-03-09T07:43:08.000Z,99431
2018-03-09T07:45:08.000Z,99420
2018-03-09T07:46:08.000Z,99433
2018-03-09T07:48:08.000Z,99419
2018-03-09T07:49:08.000Z,99420
2018-03-09T07:51:08.000Z,99439
2018-03-09T07:53:08.000Z,99437
2018-03-09T07:55:08.000Z,99433
2018-03-09T07:57:08.000Z,99433
2018-03-09T07:59:08.000Z,99430
2018-03-09T08:01:08.000Z,99439
2018-03-09T08:03:08.000Z,99435
2018-03-09T08:05:08.000Z,99443
2018-03-09T08:07:08.000Z,99440
2018-03-09T08:09:08.000Z,99439
2018-03-09T08:11:08.000Z,99445
2018-03-09T08:12:08.000Z,99452
2018-03-09T08:13:08.000Z,99449
2018-03-09T08:15:08.000Z,99445
2018-03-09T08:16:08.000Z,99448
2018-03-09T08:17:08.000Z,99452
2018-03-09T08:18:52.000Z,99443
2018-03-09T08:20:08.000Z,99446
2018-03-09T08:21:08.000Z,99442
2018-03-09T08:23:08.000Z,99449
2018-03-09T08:24:52.000Z,99444
2018-03-09T08:26:08.000Z,99451
2018-03-09T08:27:37.000Z,99447
2018-03-09T08:29:08.000Z,99447
2018-03-09T08:30:08.000Z,99445
2018-03-09T08:32:08.000Z,99448
2018-03-09T08:34:08.000Z,99448
2018-03-09T08:35:08.000Z,99449
2018-03-09T08:36:52.000Z,99445
2018-03-09T08:38:08.000Z,99451
2018-03-09T08:39:08.000Z,99447
2018-03-09T08:41:08.000Z,99454
2018-03-09T08:42:08.000Z,99452
2018-03-09T08:44:08.000Z,99447
2018-03-09T08:45:08.000Z,99457
2018-03-09T08:46:52.000Z,99465
2018-03-09T08:48:08.000Z,99464
2018-03-09T08:50:08.000Z,99451
2018-03-09T08:51:08.000Z,99456
2018-03-09T08:53:08.000Z,99455
2018-03-09T08:54:52.000Z,99460
2018-03-09T08:56:08.000Z,99454
2018-03-09T08:57:08.000Z,99462
2018-03-09T08:58:08.000Z,99454
2018-03-09T08:59:08.000Z,99458
2018-03-09T09:00:08.000Z,99456
2018-03-09T09:01:52.000Z,99455
2018-03-09T09:03:08.000Z,99453
2018-03-09T09:04:08.000Z,99452
2018-03-09T09:06:08.000Z,99449
2018-03-09T09:07:08.000Z,99452
2018-03-09T09:08:37.000Z,99456
2018-03-09T09:10:08.000Z,99448
2018-03-09T09:12:08.000Z,99454
2018-03-09T09:14:08.000Z,99453
2018-03-09T09:16:07.000Z,99452
2018-03-09T09:18:07.000Z,99463
2018-03-09T09:20:07.000Z,99454
2018-03-09T09:21:07.000Z,99456
2018-03-09T09:23:07.000Z,99458
2018-03-09T09:24:07.000Z,99448
2018-03-09T09:26:07.000Z,99454
2018-03-09T09:28:07.000Z,99445
2018-03-09T09:29:37.000Z,99459
2018-03-09T09:31:07.000Z,99454
2018-03-09T09:33:07.000Z,99457
2018-03-09T09:35:07.000Z,99455
2018-03-09T09:36:08.000Z,99456
2018-03-09T09:38:07.000Z,99463
2018-03-09T09:39:07.000Z,99463
2018-03-09T09:40:07.000Z,99460
2018-03-09T09:42:07.000Z,99467
2018-03-09T09:44:08.000Z,99468
2018-03-09T09:46:07.000Z,99469
2018-03-09T09:47:07.000Z,99466
2018-03-09T09:48:08.000Z,99470
2018-03-09T09:49:52.000Z,99464
2018-03-09T09:51:07.000Z,99468
2018-03-09T09:53:07.000Z,99462
2018-03-09T09:55:08.000Z,99464
2018-03-09T09:56:52.000Z,99467
2018-03-09T09:58:07.000Z,99468
2018-03-09T09:59:07.000Z,99471
2018-03-09T10:00:52.000Z,99467
2018-03-09T10:02:07.000Z,99468
2018-03-09T10:04:07.000Z,99480
2018-03-09T10:06:08.000Z,99478
2018-03-09T10:07:08.000Z,99480
2018-03-09T10:09:08.000Z,99474
2018-03-09T10:10:08.000Z,99473
2018-03-09T10:11:52.000Z,99478
2018-03-09T10:13:07.000Z,99483
2018-03-09T10:14:52.000Z,99474
2018-03-09T10:16:07.000Z,99482
2018-03-09T10:18:08.000Z,99482
2018-03-09T10:19:07.000Z,99473
2018-03-09T10:21:07.000Z,99477
2018-03-09T10:23:07.000Z,99477
2018-03-09T10:25:07.000Z,99481
2018-03-09T10:26:52.000Z,99474
2018-03-09T10:28:07.000Z,99477
2018-03-09T10:29:07.000Z,99474
2018-03-09T10:31:07.000Z,99473
2018-03-09T10:32:07.000Z,99481
2018-03-09T10:34:07.000Z,99473
2018-03-09T10:36:07.000Z,99474
2018-03-09T10:38:07.000Z,99479
2018-03-09T10:39:52.000Z,99468
2018-03-09T10:41:07.000Z,99479
2018-03-09T10:43:07.000Z,99473
2018-03-09T10:44:07.000Z,99479
2018-03-09T10:45:07.000Z,99472
2018-03-09T10:47:07.000Z,99481
2018-03-09T10:48:52.000Z,99482
2018-03-09T10:50:07.000Z,99474
2018-03-09T10:52:07.000Z,99481
2018-03-09T10:54:07.000Z,99479
2018-03-09T10:56:07.000Z,99482
2018-03-09T10:57:07.000Z,99481
2018-03-09T10:59:07.000Z,99483
2018-03-09T11:01:07.000Z,99477
2018-03-09T11:03:07.000Z,99474
2018-03-09T11:05:07.000Z,99476
2018-03-09T11:07:07.000Z,99487
2018-03-09T11:08:07.000Z,99476
2018-03-09T11:09:52.000Z,99476
2018-03-09T11:11:07.000Z,99475
2018-03-09T11:13:07.000Z,99477
2018-03-09T11:14:07.000Z,99473
2018-03-09T11:16:07.000Z,99473
2018-03-09T11:18:07.000Z,99483
2018-03-09T11:19:07.000Z,99476
2018-03-09T11:21:07.000Z,99480
2018-03-09T11:22:07.000Z,99481
2018-03-09T11:24:08.000Z,99486
2018-03-09T11:26:08.000Z,99481
2018-03-09T11:28:08.000Z,99486
2018-03-09T11:30:08.000Z,99483
2018-03-09T11:31:08.000Z,99485
2018-03-09T11:32:53.000Z,99470
2018-03-09T11:33:53.000Z,99472
2018-03-09T11:35:08.000Z,99474
2018-03-09T11:37:08.000Z,99475
2018-03-09T11:38:08.000Z,99473
2018-03-09T11:40:08.000Z,99482
2018-03-09T11:42:08.000Z,99480
2018-03-09T11:43:08.000Z,99491
2018-03-09T11:45:08.000Z,99473
2018-03-09T11:46:08.000Z,99484
2018-03-09T11:48:08.000Z,99469
2018-03-09T11:50:08.000Z,99478
2018-03-09T11:51:08.000Z,99476
2018-03-09T11:53:08.000Z,99471
2018-03-09T11:55:08.000Z,99463
2018-03-09T11:57:08.000Z,99460
2018-03-09T11:59:08.000Z,99450
2018-03-09T12:01:08.000Z,99449
2018-03-09T12:03:08.000Z,99445
2018-03-09T12:05:08.000Z,99457
2018-03-09T12:07:08.000Z,99459
2018-03-09T12:08:08.000Z,99446
2018-03-09T12:10:08.000Z,99437
2018-03-09T12:12:08.000Z,99437
2018-03-09T12:14:08.000Z,99430
2018-03-09T12:16:08.000Z,99432
2018-03-09T12:17:08.000Z,99431
2018-03-09T12:18:08.000Z,99426
2018-03-09T12:20:08.000Z,99417
2018-03-09T12:21:53.000Z,99423
2018-03-09T12:23:08.000Z,99414
2018-03-09T12:24:08.000Z,99419
2018-03-09T12:26:08.000Z,99416
2018-03-09T12:28:08.000Z,99416
2018-03-09T12:30:08.000Z,99414
2018-03-09T12:31:08.000Z,99409
2018-03-09T12:32:08.000Z,99412
2018-03-09T12:33:52.000Z,99414
2018-03-09T12:35:08.000Z,99417
2018-03-09T12:36:08.000Z,99420
2018-03-09T12:38:08.000Z,99418
2018-03-09T12:40:08.000Z,99422
2018-03-09T12:41:37.000Z,99418
2018-03-09T12:43:08.000Z,99420
2018-03-09T12:44:08.000Z,99421
2018-03-09T12:45:52.000Z,99411
2018-03-09T12:47:08.000Z,99420
2018-03-09T12:49:08.000Z,99424
2018-03-09T12:50:08.000Z,99414
2018-03-09T12:52:08.000Z,99414
2018-03-09T12:53:08.000Z,99408
2018-03-09T12:55:08.000Z,99402
2018-03-09T12:57:08.000Z,99406
2018-03-09T12:58:08.000Z,99406
2018-03-09T12:59:52.000Z,99406
2018-03-09T13:01:08.000Z,99415
2018-03-09T13:03:08.000Z,99409
2018-03-09T13:04:52.000Z,99407
2018-03-09T13:05:52.000Z,99413
2018-03-09T13:07:08.000Z,99406
2018-03-09T13:08:52.000Z,99405
2018-03-09T13:10:08.000Z,99410
2018-03-09T13:12:08.000Z,99408
2018-03-09T13:14:08.000Z,99404
2018-03-09T13:16:08.000Z,99401
2018-03-09T13:18:08.000Z,99395
2018-03-09T13:19:52.000Z,99397
2018-03-09T13:21:08.000Z,99397
2018-03-09T13:23:08.000Z,99392
2018-03-09T13:24:37.000Z,99396
2018-03-09T13:26:08.000Z,99395
2018-03-09T13:27:52.000Z,99397
2018-03-09T13:29:08.000Z,99389
2018-03-09T13:30:07.000Z,99393
2018-03-09T13:32:07.000Z,99394
2018-03-09T13:34:07.000Z,99404
2018-03-09T13:35:07.000Z,99392
2018-03-09T13:36:07.000Z,99396
2018-03-09T13:38:07.000Z,99389
2018-03-09T13:40:07.000Z,99392
2018-03-09T13:42:07.000Z,99391
2018-03-09T13:44:07.000Z,99388
2018-03-09T13:46:07.000Z,99389
2018-03-09T13:47:07.000Z,99387
2018-03-09T13:49:07.000Z,99391
2018-03-09T13:50:07.000Z,99395
2018-03-09T13:52:07.000Z,99397
2018-03-09T13:53:07.000Z,99398
2018-03-09T13:54:07.000Z,99397
2018-03-09T13:55:52.000Z,99407
2018-03-09T13:57:07.000Z,99403
2018-03-09T13:58:37.000Z,99399
2018-03-09T14:00:07.000Z,99398
2018-03-09T14:02:07.000Z,99391
2018-03-09T14:04:07.000Z,99390
2018-03-09T14:05:52.000Z,99386
2018-03-09T14:07:07.000Z,99390
2018-03-09T14:09:07.000Z,99385
2018-03-09T14:10:07.000Z,99380
2018-03-09T14:12:07.000Z,99385
2018-03-09T14:14:07.000Z,99390
2018-03-09T14:16:07.000Z,99374
2018-03-09T14:18:07.000Z,99374
2018-03-09T14:19:52.000Z,99380
2018-03-09T14:21:07.000Z,99372
2018-03-09T14:23:07.000Z,99367
2018-03-09T14:25:07.000Z,99372
2018-03-09T14:27:07.000Z,99375
2018-03-09T14:28:07.000Z,99376
2018-03-09T14:30:07.000Z,99375
2018-03-09T14:31:52.000Z,99378
2018-03-09T14:33:07.000Z,99372
2018-03-09T14:35:07.000Z,99367
2018-03-09T14:37:07.000Z,99367
2018-03-09T14:39:07.000Z,99375
2018-03-09T14:40:07.000Z,99371
2018-03-09T14:42:07.000Z,99371
2018-03-09T14:44:07.000Z,99371
2018-03-09T14:45:07.000Z,99377
2018-03-09T14:46:52.000Z,99371
2018-03-09T14:48:07.000Z,99375
2018-03-09T14:49:52.000Z,99372
2018-03-09T14:50:52.000Z,99310
2018-03-09T14:52:07.000Z,99367
2018-03-09T14:54:07.000Z,99369
2018-03-09T14:55:52.000Z,99370
2018-03-09T14:56:52.000Z,99369
2018-03-09T14:58:07.000Z,99365
2018-03-09T14:59:07.000Z,99372
2018-03-09T15:01:07.000Z,99373
2018-03-09T15:02:07.000Z,99372
2018-03-09T15:04:07.000Z,99371
2018-03-09T15:06:07.000Z,99371
2018-03-09T15:07:52.000Z,99370
2018-03-09T15:09:07.000Z,99368
2018-03-09T15:11:07.000Z,99367
2018-03-09T15:12:52.000Z,99367
2018-03-09T15:14:07.000Z,99368
2018-03-09T15:15:07.000Z,99362
2018-03-09T15:17:07.000Z,99359
2018-03-09T15:18:07.000Z,99356
2018-03-09T15:20:07.000Z,99351
2018-03-09T15:21:52.000Z,99353
2018-03-09T15:22:52.000Z,99354
2018-03-09T15:24:07.000Z,99351
2018-03-09T15:25:52.000Z,99353
2018-03-09T15:27:07.000Z,99351
2018-03-09T15:29:07.000Z,99357
2018-03-09T15:31:07.000Z,99349
2018-03-09T15:33:07.000Z,99344
2018-03-09T15:35:07.000Z,99348
2018-03-09T15:37:07.000Z,99355
2018-03-09T15:39:07.000Z,99354
2018-03-09T15:41:07.000Z,99359
2018-03-09T15:42:52.000Z,99356
2018-03-09T15:44:07.000Z,99352
2018-03-09T15:46:07.000Z,99352
2018-03-09T15:47:07.000Z,99351
2018-03-09T15:48:07.000Z,99354
2018-03-09T15:50:07.000Z,99352
2018-03-09T15:51:07.000Z,99353
2018-03-09T15:52:07.000Z,99350
2018-03-09T15:53:52.000Z,99344
2018-03-09T15:55:07.000Z,99342
2018-03-09T15:57:07.000Z,99337
2018-03-09T15:59:07.000Z,99336
2018-03-09T16:01:07.000Z,99336
2018-03-09T16:03:07.000Z,99329
2018-03-09T16:05:07.000Z,99331
2018-03-09T16:06:07.000Z,99332
2018-03-09T16:07:07.000Z,99329
2018-03-09T16:08:07.000Z,99338
2018-03-09T16:09:52.000Z,99332
2018-03-09T16:11:07.000Z,99332
2018-03-09T16:12:07.000Z,99339
2018-03-09T16:14:07.000Z,99332
2018-03-09T16:16:07.000Z,99331
2018-03-09T16:18:07.000Z,99330
2018-03-09T16:20:07.000Z,99335
2018-03-09T16:22:07.000Z,99336
2018-03-09T16:23:07.000Z,99332
2018-03-09T16:25:07.000Z,99335
2018-03-09T16:26:07.000Z,99336
2018-03-09T16:27:07.000Z,99336
2018-03-09T16:29:07.000Z,99339
2018-03-09T16:30:07.000Z,99342
2018-03-09T16:32:07.000Z,99341
2018-03-09T16:34:07.000Z,99339
2018-03-09T16:36:07.000Z,99340
2018-03-09T16:38:07.000Z,99346
2018-03-09T16:39:07.000Z,99345
2018-03-09T16:40:07.000Z,99342
2018-03-09T16:42:07.000Z,99347
2018-03-09T16:43:52.000Z,99344
2018-03-09T16:45:07.000Z,99346
2018-03-09T16:46:07.000Z,99348
2018-03-09T16:48:07.000Z,99345
2018-03-09T16:50:07.000Z,99342
2018-03-09T16:52:07.000Z,99344
2018-03-09T16:54:07.000Z,99348
2018-03-09T16:56:07.000Z,99343
2018-03-09T16:57:07.000Z,99346
2018-03-09T16:58:07.000Z,99348
2018-03-09T17:00:07.000Z,99349
2018-03-09T17:02:07.000Z,99349
2018-03-09T17:04:07.000Z,99346
2018-03-09T17:05:52.000Z,99347
2018-03-09T17:07:07.000Z,99340
2018-03-09T17:09:07.000Z,99339
2018-03-09T17:11:07.000Z,99342
2018-03-09T17:12:07.000Z,99341
2018-03-09T17:14:07.000Z,99340
2018-03-09T17:15:07.000Z,99339
2018-03-09T17:16:52.000Z,99338
2018-03-09T17:18:07.000Z,99337
2018-03-09T17:20:07.000Z,99338
2018-03-09T17:22:07.000Z,99337
2018-03-09T17:24:07.000Z,99337
2018-03-09T17:25:07.000Z,99340
2018-03-09T17:27:07.000Z,99348
2018-03-09T17:29:07.000Z,99351
2018-03-09T17:31:07.000Z,99349
2018-03-09T17:33:07.000Z,99348
2018-03-09T17:35:07.000Z,99343
2018-03-09T17:37:07.000Z,99348
2018-03-09T17:38:52.000Z,99345
2018-03-09T17:40:07.000Z,99348
2018-03-09T17:41:07.000Z,99349
2018-03-09T17:43:07.000Z,99349
2018-03-09T17:44:52.000Z,99349
2018-03-09T17:46:07.000Z,99348
2018-03-09T17:48:07.000Z,99352
2018-03-09T17:49:07.000Z,99352
2018-03-09T17:51:07.000Z,99353
2018-03-09T17:52:07.000Z,99357
2018-03-09T17:54:07.000Z,99355
2018-03-09T17:56:07.000Z,99352
2018-03-09T17:58:07.000Z,99352
2018-03-09T18:00:07.000Z,99355
2018-03-09T18:01:07.000Z,99351
2018-03-09T18:03:07.000Z,99347
2018-03-09T18:04:07.000Z,99342
2018-03-09T18:06:07.000Z,99340
2018-03-09T18:08:07.000Z,99334
2018-03-09T18:10:07.000Z,99336
2018-03-09T18:11:07.000Z,99330
2018-03-09T18:13:07.000Z,99328
2018-03-09T18:15:07.000Z,99326
2018-03-09T18:16:07.000Z,99323
2018-03-09T18:18:07.000Z,99326
2018-03-09T18:20:07.000Z,99323
2018-03-09T18:21:07.000Z,99323
2018-03-09T18:23:07.000Z,99321
2018-03-09T18:24:07.000Z,99321
2018-03-09T18:26:07.000Z,99321
2018-03-09T18:27:07.000Z,99317
2018-03-09T18:29:07.000Z,99311
2018-03-09T18:31:07.000Z,99310
2018-03-09T18:32:07.000Z,99308
2018-03-09T18:33:07.000Z,99306
2018-03-09T18:35:07.000Z,99304
2018-03-09T18:36:07.000Z,99306
2018-03-09T18:38:07.000Z,99299
2018-03-09T18:40:07.000Z,99299
2018-03-09T18:41:07.000Z,99299
2018-03-09T18:43:07.000Z,99295
2018-03-09T18:45:07.000Z,99296
2018-03-09T18:47:07.000Z,99288
2018-03-09T18:49:07.000Z,99295
2018-03-09T18:50:07.000Z,99291
2018-03-09T18:52:07.000Z,99292
2018-03-09T18:54:07.000Z,99293
2018-03-09T18:55:52.000Z,99287
2018-03-09T18:57:07.000Z,99282
2018-03-09T18:59:07.000Z,99284
2018-03-09T19:01:07.000Z,99282
2018-03-09T19:03:07.000Z,99266
2018-03-09T19:05:07.000Z,99259
2018-03-09T19:06:07.000Z,99267
2018-03-09T19:07:07.000Z,99262
2018-03-09T19:08:52.000Z,99265
2018-03-09T19:10:07.000Z,99259
2018-03-09T19:11:07.000Z,99264
2018-03-09T19:13:07.000Z,99260
2018-03-09T19:15:07.000Z,99261
2018-03-09T19:17:07.000Z,99252
2018-03-09T19:18:52.000Z,99254
2018-03-09T19:20:07.000Z,99256
2018-03-09T19:21:37.000Z,99255
2018-03-09T19:23:07.000Z,99261
2018-03-09T19:25:07.000Z,99259
2018-03-09T19:27:07.000Z,99257
2018-03-09T19:28:52.000Z,99254
2018-03-09T19:30:07.000Z,99254
2018-03-09T19:32:07.000Z,99251
2018-03-09T19:34:07.000Z,99253
2018-03-09T19:35:52.000Z,99247
2018-03-09T19:37:07.000Z,99248
2018-03-09T19:39:07.000Z,99244
2018-03-09T19:40:07.000Z,99244
2018-03-09T19:42:07.000Z,99246
2018-03-09T19:43:07.000Z,99244
2018-03-09T19:44:07.000Z,99238
2018-03-09T19:46:07.000Z,99240
2018-03-09T19:48:07.000Z,99236
2018-03-09T19:50:07.000Z,99243
2018-03-09T19:52:08.000Z,99232
2018-03-09T19:53:08.000Z,99234
2018-03-09T19:55:08.000Z,99235
2018-03-09T19:57:07.000Z,99238
2018-03-09T19:58:08.000Z,99239
2018-03-09T20:00:07.000Z,99241
2018-03-09T20:02:08.000Z,99241
2018-03-09T20:04:08.000Z,99238
2018-03-09T20:06:08.000Z,99236
2018-03-09T20:08:08.000Z,99236
2018-03-09T20:10:08.000Z,99240
2018-03-09T20:12:08.000Z,99232
2018-03-09T20:13:52.000Z,99232
2018-03-09T20:15:08.000Z,99229
2018-03-09T20:16:37.000Z,99231
2018-03-09T20:18:07.000Z,99235
2018-03-09T20:20:08.000Z,99228
2018-03-09T20:21:52.000Z,99228
2018-03-09T20:23:08.000Z,99221
2018-03-09T20:24:08.000Z,99227
2018-03-09T20:26:08.000Z,99225
2018-03-09T20:27:08.000Z,99223
2018-03-09T20:29:08.000Z,99219
2018-03-09T20:31:08.000Z,99224
2018-03-09T20:32:08.000Z,99221
2018-03-09T20:34:08.000Z,99221
2018-03-09T20:36:08.000Z,99218
2018-03-09T20:37:08.000Z,99217
2018-03-09T20:38:08.000Z,99216
2018-03-09T20:40:08.000Z,99219
2018-03-09T20:41:08.000Z,99217
2018-03-09T20:43:08.000Z,99214
2018-03-09T20:45:08.000Z,99212
2018-03-09T20:47:08.000Z,99202
2018-03-09T20:48:08.000Z,99205